• Join FlightAware (Why Join?)
  • Login
  • US Flag 
08:43PM EDT


 

Airport Tracker/Info


-or-


 

Live Flight TrackerFlight Track Log ✈ JZA7651 ✈ 28-Sep-2013 ✈ KDCA - CYUL

Flight Track Log - Related Links

Times and Time Zones

All times are in EDT time to prevent confusion due to time zone crossing. See the JZA7651 flight status page for this flight to view local times or setup timezone preferences in your user account.

Time Position Orientation Groundspeed Altitude Reporting Facility
EDT Latitude Longitude Course Direction KTS MPH feet Rate Location/Type
09:03PM 38.8833 -77.0667 North 175 201 2,100  Level Potomac TRACON
09:04PM 38.9167 -77.1167 311° West 215 247 4,600 2,880 Climbing Potomac TRACON
09:05PM 38.9833 -77.1667 330° Northwest 278 320 7,600 3,240 Climbing Potomac TRACON
09:06PM 39.0167 -77.2500 297° West 287 330 10,800 2,820 Climbing Potomac TRACON
09:07PM 39.3920 -76.7945 North  Level Estimated
09:07PM 39.0833 -77.3167 322° Northwest 301 346 13,300  Level Potomac TRACON
09:08PM 39.5000 -76.7454 North  Level Estimated
09:08PM 39.1667 -77.3333 351° North 310 357 16,000  Level Potomac TRACON
09:10PM 39.3919 -77.3908 349° North 344 396 19,100 1,320 Climbing Washington Center
09:12PM 39.5664 -77.4369 348° North 369 425 21,600 1,440 Climbing New York Center
09:13PM 39.6697 -77.4547 352° North 369 425 23,000 1,440 Climbing New York Center
09:14PM 39.7742 -77.4539 360° North 364 419 24,500 1,500 Climbing New York Center
09:15PM 39.8764 -77.4528 360° North 364 419 26,000 1,500 Climbing New York Center
09:16PM 39.9722 -77.4511 North 358 412 27,600 1,080 Climbing New York Center
09:17PM 40.0606 -77.4378 North 358 412 28,200 660 Climbing New York Center
09:18PM 40.1647 -77.4017 15° North 352 405 29,000 720 Climbing New York Center
09:19PM 40.2564 -77.3694 15° North 363 418 29,700 840 Climbing New York Center
09:20PM 40.3561 -77.3381 13° North 363 418 30,700 840 Climbing New York Center
09:21PM 40.4644 -77.3019 14° North 363 418 31,500 840 Climbing New York Center
09:22PM 40.5622 -77.2675 15° North 363 418 32,500 720 Climbing New York Center
09:23PM 40.6639 -77.2361 13° North 363 418 33,000 240 Climbing New York Center
09:24PM 40.7658 -77.1992 15° North 368 423 33,000  Level New York Center
09:25PM 40.8719 -77.1653 14° North 379 436 33,000  Level New York Center
09:26PM 40.9825 -77.1261 15° North 390 449 33,000  Level New York Center
09:27PM 41.0928 -77.0897 14° North 396 456 33,000  Level New York Center
09:28PM 41.2011 -77.0528 14° North 402 463 33,000  Level New York Center
09:29PM 41.3111 -77.0189 13° North 402 463 33,000  Level New York Center
09:31PM 41.5125 -76.9436 16° North 409 471 33,000  Level Cleveland Center
09:32PM 41.6153 -76.9100 14° North 410 472 33,000  Level Cleveland Center
09:33PM 41.7250 -76.8728 14° North 409 471 33,000  Level Cleveland Center
09:34PM 41.8567 -76.8258 15° North 408 470 33,000  Level Cleveland Center
09:35PM 41.9656 -76.7875 15° North 407 468 33,000  Level Cleveland Center
09:36PM 42.0722 -76.7497 15° North 400 460 33,000  Level Cleveland Center
09:37PM 42.1797 -76.7114 15° North 400 460 33,000  Level Cleveland Center
09:38PM 42.2867 -76.6742 14° North 400 460 33,000  Level Cleveland Center
09:39PM 42.3947 -76.6361 15° North 402 463 33,000  Level Cleveland Center
09:40PM 42.5033 -76.5961 15° North 407 468 33,000 -60 Level Cleveland Center
09:41PM 42.5967 -76.5614 15° North 405 466 32,900 -480 Descending Boston Center
09:42PM 42.7147 -76.5239 13° North 405 466 32,100 -480 Descending Boston Center
09:43PM 42.8183 -76.4856 15° North 394 453 32,000 -300 Descending Boston Center
09:44PM 42.9133 -76.4519 15° North 394 453 31,600 -540 Descending Boston Center
09:45PM 43.0275 -76.4083 16° North 400 460 31,000 -360 Descending Boston Center
09:46PM 43.1414 -76.3675 15° North 413 475 31,000  Level Boston Center
09:47PM 43.2533 -76.3289 14° North 418 481 31,000  Level Boston Center
09:48PM 43.3672 -76.2878 15° North 418 481 31,000  Level Boston Center
09:49PM 43.4792 -76.2461 15° North 418 481 31,000  Level Boston Center
09:50PM 43.5931 -76.2044 15° North 418 481 31,000  Level Boston Center
09:51PM 43.7050 -76.1597 16° North 418 481 31,000  Level Boston Center
09:52PM 43.8192 -76.1150 16° North 418 481 31,000  Level Boston Center
09:53PM 43.9564 -76.0600 16° North 418 481 31,000  Level Boston Center
09:54PM 44.0550 -75.9733 32° Northeast 418 481 31,000  Level Boston Center
09:55PM 44.1578 -75.8839 32° Northeast 424 488 31,000 -60 Level Boston Center
09:56PM 44.2583 -75.7942 33° Northeast 430 495 30,900 -60 Descending Boston Center
09:57PM 44.3428 -75.6800 44° Northeast 425 489 30,900  Level Boston Center
09:58PM 44.4275 -75.5594 45° Northeast 420 483 30,900  Level Boston Center
09:59PM 44.5097 -75.4414 46° Northeast 420 483 31,000  Climbing Boston Center
10:00PM 44.5919 -75.3203 46° Northeast 426 490 31,000  Level Boston Center
10:01PM 44.6783 -75.1989 45° Northeast 431 496 31,000 -60 Level Boston Center
10:02PM 44.7606 -75.0714 48° Northeast 436 502 30,900 -1,500 Descending Boston Center
10:04PM 44.8667 -74.9000 49° Northeast 420 483 27,600 -2,760 Descending Montreal Center
10:05PM 44.9500 -74.7833 45° Northeast 400 460 24,600 -2,880 Descending Montreal Center
10:06PM 45.0167 -74.6667 51° Northeast 400 460 21,900 -1,620 Descending Montreal Center
10:08PM 45.1565 -74.4602 35° Northeast  Level FlightAware Approximate
10:15PM 45.4681 -73.7414 46° Northeast  Level Estimated
10:16PM 45.4681 -73.7414 188° South  Level Estimated
10:17PM 45.4681 -73.7414 199° South  Level Estimated
10:18PM 45.4667 -73.7333 199° South  Level FlightAware Approximate
10:19PM 45.4681 -73.7414 199° South  Level Estimated
10:20PM 45.4667 -73.7333 199° South  Level FlightAware Approximate
10:20PM 45.4833 -73.7000 199° South 140 161 700  Level Montreal Center
10:21PM 45.4681 -73.7414 199° South  Level Estimated
10:21PM 45.4667 -73.7500 245° Southwest 110 127 100  Level Montreal Center
10:22PM 45.4667 -73.7333 199° South  Level FlightAware Approximate
10:22PM 45.4500 -73.7500 180° South 30 35 100  Level Montreal Center
10:22PM 45.4500 -73.7500 180° South 20 23 100  Level Montreal Center